Terminal Aerodrome Forecast
Issued by NWS

Home | Current Version | Previous Version | Text Only | Print | Product List | Glossary On
Versions: 1 2 3 4 5 6 7 8 9 10 11 12 13 14 15 16 17 18 19 20 21 22 23 24 25
000
FTUS45 KGJT 011130
TAFMTJ
TAF
KMTJ 011130Z 0112/0212 12005KT P6SM VCTS FEW070CB BKN120
      TEMPO 0112/0114 VRB10G20KT -TSRA BKN070CB
     FM011600 VRB05KT P6SM FEW070 SCT120
     FM011900 33008KT P6SM VCTS FEW110CB BKN150
     FM020200 14006KT P6SM FEW120 BKN200=

USA.gov is the U.S. government's official web portal to all federal, state and local government web resources and services.